OISL  Lar  Airport

Lar, Iran

Add Bookmark
ICAO OISL
IATA LRR
Type Airport
Status Operational
Latitude
27° 40' 28" N
27.674700
Longitude
54° 22' 59" E
54.383301
Local (DST + 5) UTC (GMT + 4)
Aug 4, 2015 06:18 Aug 4, 2015 13:48
Sunrise-Sunset Local UTC
Begin Civil Twilight 05:50 01:20
Sunrise 06:15 01:45
Sunset 07:41 15:11
End Civil Twilight 08:06 15:36
VFR
VFR
MVFR
MVFR
IFR
IFR
LIFR
LIFR
Unknown
Unavailable

Current Weather

METAR Observed VFR
OISL 041300Z 06004KT 9999 FEW030TCU 40/08 Q1004 Tue, Aug 4, 2015 @ 13:00 UTC
(48 Minutes ago)
Visual Flight Rules
Wind Visibility Clouds Conditions
060° at 4 knots (7 kph) 10 km or more
  • Few at 3,000 ft AGL
  • No significant weather
Temperatures Readings Precipitation
Current Temp
40°C
104°F
Dewpoint
8°C
46°F
Humidity 14%
Altimeter 29.65" Hg
Sea Level Pressure 1,004 mb
Field Elevation
805 m
2,641 ft
None Recorded
-
-

CheckWX.com is intended as a tool to help pilots better visualize weather data. It is not intended as a substitute for an official weather briefing obtained from a Flight Service Station. CheckWX.com does not meet the FAA requirements for an official pre-flight weather briefing. Therefore, it's important that pilots still call and obtain an official FSS pre-flight weather briefing.

© 2007-2015 CheckWX.com
13:48:35 UTC